Time;durP1;ratioP1;P1;durP2;ratioP2;P2;SDS_P1;SDS_P2;PMS_P1;PMS_P2;Temp;Humidity;BMP_temperature;BMP_pressure;BME280_temperature;BME280_humidity;BME280_pressure;Samples;Min_cycle;Max_cycle;Signal;HPM_P1;HPM_P2
2022/08/06 00:00:09;;;;;;;1.00;0.40;;;;;;;31.48;23.92;100694.63;4897236;29;20052;-79
2022/08/06 00:02:38;;;;;;;0.82;0.40;;;;;;;31.49;23.58;100701.69;4876144;29;20487;-81
2022/08/06 00:05:10;;;;;;;2.80;0.40;;;;;;;31.50;24.07;100703.44;4887913;29;20072;-82
2022/08/06 00:07:38;;;;;;;0.93;0.50;;;;;;;31.47;24.02;100693.78;4887050;29;20701;-80
2022/08/06 00:10:07;;;;;;;4.72;0.93;;;;;;;31.44;23.69;100691.25;4883824;29;20064;-86
2022/08/06 00:12:39;;;;;;;0.73;0.40;;;;;;;31.39;24.16;100696.00;4893480;29;20087;-82
2022/08/06 00:15:09;;;;;;;2.13;0.63;;;;;;;31.39;23.34;100692.47;4890290;29;20049;-82
2022/08/06 00:17:38;;;;;;;3.60;0.60;;;;;;;31.38;23.74;100688.91;4892131;29;20063;-83
2022/08/06 00:20:09;;;;;;;1.10;0.50;;;;;;;31.35;24.99;100691.78;4897316;29;20045;-81
2022/08/06 00:22:37;;;;;;;;;;;;;;;31.24;23.55;100687.03;4893986;29;20570;-79
2022/08/06 00:25:07;;;;;;;1.88;0.50;;;;;;;31.14;24.73;100685.88;4893586;29;20030;-83
2022/08/06 00:27:39;;;;;;;2.10;0.77;;;;;;;31.15;24.74;100686.72;4890081;28;20567;-82
2022/08/06 00:30:07;;;;;;;;;;;;;;;31.19;24.47;100677.59;4897738;29;20103;-82
2022/08/06 00:32:36;;;;;;;1.35;0.65;;;;;;;31.18;23.85;100682.06;4888649;29;19932;-78
2022/08/06 00:35:06;;;;;;;0.43;0.32;;;;;;;31.18;23.71;100678.53;4892982;29;20052;-83
2022/08/06 00:37:36;;;;;;;2.55;0.40;;;;;;;31.19;24.93;100689.13;4888561;29;20060;-83
2022/08/06 00:40:05;;;;;;;2.55;0.60;;;;;;;31.11;24.89;100670.03;4889442;29;20052;-80
2022/08/06 00:42:33;;;;;;;1.48;0.73;;;;;;;31.10;24.45;100677.16;4888292;29;20052;-83
2022/08/06 00:45:03;;;;;;;0.60;0.47;;;;;;;31.10;24.36;100684.31;4891099;29;20048;-80
2022/08/06 00:47:31;;;;;;;1.88;0.47;;;;;;;31.04;23.74;100668.63;4888394;29;20088;-80
2022/08/06 00:50:00;;;;;;;1.83;0.60;;;;;;;31.03;25.08;100682.94;4888962;29;20052;-83
2022/08/06 00:52:28;;;;;;;0.90;0.40;;;;;;;31.02;25.43;100681.25;4891434;29;20048;-84
2022/08/06 00:54:58;;;;;;;2.88;0.50;;;;;;;30.95;24.79;100679.84;4891178;29;20056;-81
2022/08/06 00:57:27;;;;;;;1.90;0.60;;;;;;;30.94;24.15;100684.31;4890413;29;20048;-82
2022/08/06 00:59:55;;;;;;;0.77;0.45;;;;;;;30.89;25.05;100678.38;4891453;29;20108;-81
2022/08/06 01:02:27;;;;;;;0.82;0.55;;;;;;;30.83;25.60;100678.69;4878776;29;20108;-78
2022/08/06 01:05:05;;;;;;;0.45;0.40;;;;;;;30.78;25.32;100675.44;4884365;29;20091;-81
2022/08/06 01:07:35;;;;;;;1.20;0.40;;;;;;;30.64;24.81;100671.72;4891053;29;20053;-80
2022/08/06 01:10:06;;;;;;;1.92;0.60;;;;;;;30.51;24.79;100681.34;4891858;29;20059;-81
2022/08/06 01:12:35;;;;;;;2.00;0.50;;;;;;;30.38;25.33;100680.31;4887449;29;20049;-81
2022/08/06 01:15:05;;;;;;;5.15;0.50;;;;;;;30.26;25.34;100676.44;4889362;29;20048;-80
2022/08/06 01:17:39;;;;;;;1.30;0.50;;;;;;;30.15;25.29;100677.03;4885217;29;20487;-80
2022/08/06 01:20:22;;;;;;;2.15;0.52;;;;;;;30.09;26.21;100668.50;4883827;29;20616;-80
2022/08/06 01:23:17;;;;;;;1.13;0.50;;;;;;;30.00;26.17;100678.72;4882147;29;20060;-80
2022/08/06 01:26:14;;;;;;;0.90;0.60;;;;;;;30.02;26.41;100668.81;4888178;29;20139;-81
2022/08/06 01:28:52;;;;;;;0.65;0.40;;;;;;;30.07;26.52;100671.25;4890639;28;20072;-80
2022/08/06 01:31:27;;;;;;;1.30;0.63;;;;;;;30.11;27.05;100671.97;4882927;29;20052;-79
2022/08/06 01:34:02;;;;;;;1.50;0.50;;;;;;;30.11;27.52;100667.47;4881354;29;20108;-78
2022/08/06 01:36:41;;;;;;;1.45;0.60;;;;;;;30.05;25.45;100667.78;4890833;29;20056;-78
2022/08/06 01:39:13;;;;;;;0.65;0.40;;;;;;;29.97;26.17;100670.03;4889019;29;20054;-79
2022/08/06 01:41:46;;;;;;;1.92;0.60;;;;;;;29.90;25.25;100663.28;4884875;29;20129;-78
2022/08/06 01:44:20;;;;;;;1.20;0.70;;;;;;;29.89;25.56;100670.41;4890839;29;20539;-80
2022/08/06 01:46:53;;;;;;;0.93;0.65;;;;;;;29.85;25.87;100669.72;4887105;29;20052;-80
2022/08/06 01:49:27;;;;;;;1.23;0.52;;;;;;;29.78;25.17;100668.31;4888365;29;21247;-80
2022/08/06 01:51:58;;;;;;;0.73;0.40;;;;;;;29.79;25.83;100677.19;4891546;29;20060;-80
2022/08/06 01:54:31;;;;;;;1.70;0.50;;;;;;;29.73;25.09;100678.34;4889909;29;20515;-79
2022/08/06 01:57:01;;;;;;;1.08;0.50;;;;;;;29.65;25.39;100676.06;4894392;29;20053;-80
2022/08/06 01:59:35;;;;;;;0.55;0.40;;;;;;;29.58;26.29;100682.66;4882376;29;20506;-81
2022/08/06 02:02:07;;;;;;;0.45;0.40;;;;;;;29.55;26.51;100676.59;4889787;29;20048;-81
2022/08/06 02:04:41;;;;;;;1.77;0.50;;;;;;;29.47;25.72;100681.47;4890896;29;20056;-82
2022/08/06 02:07:13;;;;;;;1.00;0.60;;;;;;;29.39;26.84;100685.38;4891582;29;20059;-82
2022/08/06 02:09:44;;;;;;;0.47;0.38;;;;;;;29.31;26.68;100676.03;4886076;29;20060;-78
2022/08/06 02:12:21;;;;;;;0.88;0.50;;;;;;;29.25;26.66;100682.53;4880341;29;20063;-80
2022/08/06 02:14:57;;;;;;;2.83;0.70;;;;;;;29.15;26.91;100678.59;4887127;29;20052;-80
2022/08/06 02:17:31;;;;;;;1.83;0.70;;;;;;;29.05;27.79;100670.19;4885514;29;20082;-81
2022/08/06 02:20:01;;;;;;;2.83;0.50;;;;;;;29.11;27.76;100685.00;4892134;29;20447;-79
2022/08/06 02:22:30;;;;;;;2.13;0.70;;;;;;;29.06;28.56;100684.34;4890843;29;20756;-80
2022/08/06 02:25:04;;;;;;;0.50;0.50;;;;;;;29.01;26.66;100690.75;4887565;29;20056;-81
2022/08/06 02:27:34;;;;;;;0.45;0.40;;;;;;;28.96;27.69;100687.47;4885199;29;20067;-82
2022/08/06 02:30:05;;;;;;;1.88;0.57;;;;;;;28.82;26.97;100689.94;4883376;29;20049;-80
2022/08/06 02:32:34;;;;;;;1.07;0.63;;;;;;;28.70;28.18;100696.72;4889851;29;20724;-80
2022/08/06 02:35:02;;;;;;;0.90;0.40;;;;;;;28.60;28.03;100693.59;4890919;29;20045;-80
2022/08/06 02:37:35;;;;;;;1.10;0.55;;;;;;;28.49;28.46;100701.19;4890398;29;20606;-78
2022/08/06 02:40:10;;;;;;;2.38;0.70;;;;;;;28.38;28.13;100695.47;4889138;29;20112;-81
2022/08/06 02:42:44;;;;;;;0.80;0.60;;;;;;;28.30;28.60;100697.63;4885919;29;20053;-82
2022/08/06 02:45:20;;;;;;;3.17;0.50;;;;;;;28.21;28.36;100701.56;4886348;29;20512;-82
2022/08/06 02:47:54;;;;;;;0.60;0.50;;;;;;;28.13;27.95;100695.72;4890062;29;20107;-82
2022/08/06 02:50:26;;;;;;;0.82;0.50;;;;;;;28.07;27.94;100707.50;4884428;29;20049;-77
2022/08/06 02:52:57;;;;;;;;;;;;;;;28.00;29.40;100714.03;4889260;29;20112;-77
2022/08/06 02:55:30;;;;;;;0.82;0.60;;;;;;;27.94;29.83;100711.63;4891147;29;20381;-77
2022/08/06 02:58:05;;;;;;;3.50;0.52;;;;;;;27.86;29.72;100716.44;4900140;29;20094;-78
2022/08/06 03:00:40;;;;;;;1.27;0.65;;;;;;;27.75;30.27;100723.03;4892640;29;20513;-78
2022/08/06 03:03:11;;;;;;;1.65;0.57;;;;;;;27.65;30.67;100728.78;4885004;29;20090;-77
2022/08/06 03:05:41;;;;;;;0.70;0.50;;;;;;;27.55;31.24;100728.31;4891911;29;20491;-80
2022/08/06 03:08:11;;;;;;;0.60;0.52;;;;;;;27.43;32.16;100720.88;4886726;29;20052;-79
2022/08/06 03:10:43;;;;;;;2.92;0.60;;;;;;;27.36;31.17;100725.56;4880405;29;20104;-78
2022/08/06 03:13:14;;;;;;;1.50;0.40;;;;;;;27.27;30.05;100737.41;4887831;29;20550;-78
2022/08/06 03:15:46;;;;;;;2.88;0.40;;;;;;;27.19;32.03;100731.53;4881289;29;20502;-77
2022/08/06 03:18:14;;;;;;;;;;;;;;;27.09;32.45;100728.34;4883995;29;20120;-77
2022/08/06 03:20:44;;;;;;;0.70;0.40;;;;;;;27.00;32.85;100727.88;4890348;29;19931;-78
2022/08/06 03:23:14;;;;;;;2.00;0.57;;;;;;;26.93;32.23;100738.72;4890771;29;20878;-76
2022/08/06 03:25:45;;;;;;;1.73;0.50;;;;;;;26.84;31.82;100743.53;4891456;29;20044;-76
2022/08/06 03:28:29;;;;;;;0.90;0.50;;;;;;;26.75;31.47;100750.03;4893574;28;20136;-77
2022/08/06 03:30:59;;;;;;;0.55;0.40;;;;;;;26.61;31.26;100737.28;4892676;29;20056;-76
2022/08/06 03:33:28;;;;;;;2.80;0.60;;;;;;;26.59;30.89;100754.19;4894264;29;20539;-77
2022/08/06 03:35:59;;;;;;;0.40;0.40;;;;;;;26.50;30.95;100752.72;4895533;29;20100;-78
2022/08/06 03:38:30;;;;;;;0.60;0.52;;;;;;;26.39;31.60;100758.44;4891267;29;20092;-76
2022/08/06 03:41:00;;;;;;;0.40;0.40;;;;;;;26.30;31.57;100766.72;4888959;29;20056;-75
2022/08/06 03:43:30;;;;;;;0.88;0.50;;;;;;;26.20;31.47;100762.63;4897877;29;20146;-79
2022/08/06 03:46:03;;;;;;;4.25;0.65;;;;;;;26.11;31.63;100763.81;4891773;29;20049;-81
2022/08/06 03:48:35;;;;;;;1.23;0.93;;;;;;;26.02;31.65;100767.69;4896280;29;20057;-79
2022/08/06 03:51:06;;;;;;;1.70;0.57;;;;;;;25.91;33.40;100776.00;4892531;29;20044;-77
2022/08/06 03:53:36;;;;;;;0.70;0.40;;;;;;;25.81;33.50;100776.31;4893414;29;20052;-76
2022/08/06 03:56:08;;;;;;;1.33;0.60;;;;;;;25.71;33.32;100775.75;4890185;29;20049;-77
2022/08/06 03:58:40;;;;;;;2.05;0.50;;;;;;;25.61;33.13;100785.81;4892424;29;20059;-78
2022/08/06 04:01:14;;;;;;;1.80;0.65;;;;;;;25.50;33.69;100788.78;4892843;29;20055;-77
2022/08/06 04:03:45;;;;;;;1.35;0.50;;;;;;;25.41;33.16;100796.16;4892265;29;20128;-76
2022/08/06 04:06:14;;;;;;;0.50;0.33;;;;;;;25.31;34.13;100800.00;4899914;29;20047;-77
2022/08/06 04:08:43;;;;;;;0.85;0.57;;;;;;;25.22;33.74;100809.09;4884416;29;20151;-78
2022/08/06 04:11:13;;;;;;;4.28;0.82;;;;;;;25.12;34.05;100803.19;4890453;29;20519;-78
2022/08/06 04:13:44;;;;;;;0.82;0.50;;;;;;;25.06;34.88;100811.34;4884306;29;20049;-76
2022/08/06 04:16:15;;;;;;;4.10;0.63;;;;;;;24.97;35.32;100809.81;4885364;29;20040;-83
2022/08/06 04:18:45;;;;;;;4.00;0.70;;;;;;;24.83;35.41;100815.50;4888055;29;20108;-78
2022/08/06 04:21:18;;;;;;;2.78;0.70;;;;;;;24.75;35.40;100820.16;4886026;29;20067;-83
2022/08/06 04:23:47;;;;;;;2.92;0.77;;;;;;;24.68;36.24;100821.22;4892546;29;20052;-82
2022/08/06 04:26:17;;;;;;;3.72;0.70;;;;;;;24.61;35.74;100822.31;4892566;29;20057;-78
2022/08/06 04:28:49;;;;;;;1.52;0.80;;;;;;;24.51;36.04;100829.66;4893595;29;20095;-77
2022/08/06 04:31:21;;;;;;;2.23;0.87;;;;;;;24.43;37.96;100826.28;4889033;29;20135;-77
2022/08/06 04:33:49;;;;;;;;;;;;;;;24.31;38.40;100827.50;4886082;29;20139;-78
2022/08/06 04:36:18;;;;;;;1.30;0.60;;;;;;;24.34;38.83;100835.34;4891150;29;19983;-76
2022/08/06 04:38:48;;;;;;;1.83;0.60;;;;;;;24.30;39.28;100838.94;4886769;29;20840;-76
2022/08/06 04:41:17;;;;;;;2.72;1.23;;;;;;;24.23;39.33;100838.28;4889837;29;20061;-76
2022/08/06 04:43:46;;;;;;;1.25;0.60;;;;;;;24.16;38.85;100836.66;4888376;29;20117;-77
2022/08/06 04:46:15;;;;;;;1.70;0.52;;;;;;;24.09;40.38;100839.53;4886399;29;20053;-77
2022/08/06 04:48:46;;;;;;;1.75;0.80;;;;;;;24.02;39.55;100839.66;4887814;29;20056;-81
2022/08/06 04:51:14;;;;;;;3.40;0.77;;;;;;;23.95;40.03;100848.66;4888817;29;20060;-79
2022/08/06 04:53:44;;;;;;;1.33;0.98;;;;;;;23.85;40.53;100847.16;4887628;29;20053;-80
2022/08/06 04:56:12;;;;;;;1.83;0.90;;;;;;;23.78;40.55;100856.13;4890463;29;20671;-75
2022/08/06 04:58:41;;;;;;;0.98;0.85;;;;;;;23.69;40.98;100851.91;4890466;29;20111;-82
2022/08/06 05:01:09;;;;;;;9.30;1.45;;;;;;;23.63;41.94;100852.88;4887797;29;20044;-79
2022/08/06 05:03:38;;;;;;;2.08;0.82;;;;;;;23.58;42.48;100849.50;4884242;29;20106;-78
2022/08/06 05:06:22;;;;;;;4.20;1.00;;;;;;;23.40;42.46;100856.06;4890229;29;20045;-82
2022/08/06 05:08:55;;;;;;;1.83;0.90;;;;;;;23.35;42.43;100852.66;4888964;29;20104;-77
2022/08/06 05:11:28;;;;;;;0.98;0.70;;;;;;;23.33;42.27;100858.88;4882189;29;20164;-79
2022/08/06 05:14:00;;;;;;;2.42;0.82;;;;;;;23.31;42.87;100860.66;4888612;29;20104;-79
2022/08/06 05:16:32;;;;;;;2.45;0.90;;;;;;;23.25;42.53;100860.78;4886584;29;20048;-80
2022/08/06 05:19:03;;;;;;;3.63;1.58;;;;;;;23.17;42.82;100856.53;4887810;29;20135;-78
2022/08/06 05:21:37;;;;;;;1.43;1.03;;;;;;;23.10;43.00;100862.88;4888377;29;20060;-80
2022/08/06 05:24:07;;;;;;;1.65;1.05;;;;;;;23.02;43.69;100854.25;4893283;29;20104;-80
2022/08/06 05:26:36;;;;;;;4.97;1.27;;;;;;;22.96;43.82;100859.59;4892981;29;20112;-79
2022/08/06 05:29:04;;;;;;;4.10;1.10;;;;;;;22.90;43.45;100863.22;4882390;28;20803;-80
2022/08/06 05:31:35;;;;;;;3.38;1.15;;;;;;;22.84;44.05;100859.84;4875961;29;20499;-78
2022/08/06 05:34:04;;;;;;;1.58;1.15;;;;;;;22.79;44.08;100858.19;4878098;29;20456;-78
2022/08/06 05:36:34;;;;;;;3.60;0.95;;;;;;;22.75;44.84;100866.19;4881086;29;20070;-77
2022/08/06 05:39:03;;;;;;;4.63;1.20;;;;;;;22.68;44.80;100870.69;4882610;29;20048;-75
2022/08/06 05:41:34;;;;;;;2.45;1.20;;;;;;;22.61;45.05;100874.34;4874045;29;20057;-76
2022/08/06 05:44:04;;;;;;;4.65;1.10;;;;;;;22.50;44.99;100868.41;4884067;29;20048;-77
2022/08/06 05:46:36;;;;;;;4.85;1.30;;;;;;;22.42;45.72;100876.44;4877631;29;20068;-78
2022/08/06 05:49:08;;;;;;;2.80;1.10;;;;;;;22.32;45.98;100878.38;4878083;29;20068;-81
2022/08/06 05:51:45;;;;;;;2.22;1.02;;;;;;;22.21;46.14;100874.13;4875414;29;20113;-75
2022/08/06 05:54:20;;;;;;;3.50;1.63;;;;;;;22.14;46.07;100889.19;4886272;29;20056;-76
2022/08/06 05:56:52;;;;;;;1.73;1.25;;;;;;;22.08;46.67;100884.00;4872829;29;20109;-77
2022/08/06 05:59:26;;;;;;;1.77;1.00;;;;;;;22.02;47.04;100881.47;4873691;29;20061;-78
2022/08/06 06:01:56;;;;;;;3.22;1.10;;;;;;;21.98;47.19;100887.69;4872757;29;20666;-78
2022/08/06 06:04:26;;;;;;;2.88;0.98;;;;;;;21.88;47.76;100886.97;4870286;29;20049;-78
2022/08/06 06:06:56;;;;;;;1.55;1.00;;;;;;;21.82;48.08;100901.09;4871849;29;20061;-78
2022/08/06 06:09:26;;;;;;;2.78;1.15;;;;;;;21.77;48.63;100894.16;4873864;29;20108;-76
2022/08/06 06:11:55;;;;;;;2.13;1.20;;;;;;;21.73;48.24;100899.44;4870944;29;20049;-79
2022/08/06 06:14:37;;;;;;;3.47;1.13;;;;;;;21.73;47.94;100898.59;4873550;29;20052;-79
2022/08/06 06:17:21;;;;;;;3.58;1.20;;;;;;;21.70;50.00;100898.63;4871140;29;20514;-81
2022/08/06 06:20:02;;;;;;;2.20;1.42;;;;;;;21.65;49.84;100916.28;4881935;29;20044;-81
2022/08/06 06:22:40;;;;;;;5.13;1.52;;;;;;;21.54;48.05;100904.09;4883638;29;20049;-80
2022/08/06 06:25:15;;;;;;;2.97;1.30;;;;;;;21.50;49.29;100906.78;4881900;29;20049;-78
2022/08/06 06:27:49;;;;;;;5.57;1.40;;;;;;;21.47;49.85;100906.84;4869078;28;20053;-75
2022/08/06 06:30:24;;;;;;;4.72;1.50;;;;;;;21.39;49.59;100906.91;4882327;29;20048;-77
2022/08/06 06:32:59;;;;;;;4.35;1.48;;;;;;;21.29;50.21;100910.53;4889272;29;20064;-74
2022/08/06 06:35:37;;;;;;;4.03;1.55;;;;;;;21.23;51.22;100908.84;4885721;29;20072;-74
2022/08/06 06:38:25;;;;;;;4.28;1.50;;;;;;;21.18;51.30;100915.06;4891294;29;20045;-76
2022/08/06 06:41:02;;;;;;;1.88;1.10;;;;;;;21.11;50.46;100915.13;4883700;29;20049;-75
2022/08/06 06:43:40;;;;;;;2.35;1.30;;;;;;;21.04;51.47;100908.19;4890657;29;20048;-76
2022/08/06 06:46:16;;;;;;;4.13;1.85;;;;;;;20.98;51.43;100913.53;4889927;29;20513;-76
2022/08/06 06:48:48;;;;;;;4.40;1.55;;;;;;;20.96;51.95;100912.69;4892033;29;20048;-76
2022/08/06 06:51:27;;;;;;;3.78;2.00;;;;;;;20.92;52.17;100921.50;4893237;29;20137;-77
2022/08/06 06:53:58;;;;;;;3.90;2.03;;;;;;;20.88;52.24;100917.16;4890587;29;20045;-76
2022/08/06 06:56:29;;;;;;;2.83;1.67;;;;;;;20.83;51.89;100918.97;4890278;29;20075;-78
2022/08/06 06:59:03;;;;;;;2.88;1.23;;;;;;;20.79;51.16;100923.38;4885079;29;20052;-77
2022/08/06 07:01:34;;;;;;;3.10;1.42;;;;;;;20.73;52.40;100917.28;4891160;29;20118;-78
2022/08/06 07:04:07;;;;;;;2.75;1.27;;;;;;;20.63;52.69;100914.75;4888260;29;20053;-77
2022/08/06 07:06:37;;;;;;;2.38;1.38;;;;;;;20.54;52.50;100917.44;4888459;29;20696;-76
2022/08/06 07:09:15;;;;;;;3.05;1.20;;;;;;;20.49;52.63;100919.25;4888156;29;20068;-77
2022/08/06 07:11:46;;;;;;;3.28;1.20;;;;;;;20.43;52.61;100919.28;4892784;29;20048;-76
2022/08/06 07:14:16;;;;;;;2.33;1.30;;;;;;;20.39;52.01;100917.59;4891470;29;20514;-77
2022/08/06 07:16:47;;;;;;;1.90;1.15;;;;;;;20.33;52.23;100918.50;4894398;29;20052;-78
2022/08/06 07:19:17;;;;;;;1.65;1.27;;;;;;;20.27;52.73;100911.53;4899257;29;20526;-76
2022/08/06 07:21:48;;;;;;;2.67;1.20;;;;;;;20.23;52.96;100916.84;4893657;29;20049;-77
2022/08/06 07:24:19;;;;;;;2.28;1.52;;;;;;;20.17;53.25;100911.63;4896195;29;20055;-76
2022/08/06 07:26:50;;;;;;;2.60;1.20;;;;;;;20.15;53.65;100913.38;4894585;29;20349;-76
2022/08/06 07:29:20;;;;;;;1.63;1.20;;;;;;;20.12;53.49;100923.94;4893944;28;20075;-77
2022/08/06 07:31:50;;;;;;;2.08;1.02;;;;;;;20.08;53.48;100910.78;4892717;29;20121;-78
2022/08/06 07:34:19;;;;;;;2.88;1.10;;;;;;;20.06;53.61;100914.31;4905819;29;20048;-77
2022/08/06 07:36:53;;;;;;;3.47;1.15;;;;;;;20.01;53.70;100922.22;4905337;29;20087;-76
2022/08/06 07:39:26;;;;;;;2.67;1.13;;;;;;;19.99;53.56;100925.75;4891105;29;20105;-77
2022/08/06 07:41:56;;;;;;;1.88;1.27;;;;;;;19.96;53.68;100934.53;4891439;29;20491;-78
2022/08/06 07:44:27;;;;;;;4.70;1.20;;;;;;;19.94;54.07;100938.91;4888522;29;20108;-77
2022/08/06 07:46:59;;;;;;;5.03;1.33;;;;;;;19.91;54.35;100935.44;4888671;29;20538;-76
2022/08/06 07:49:37;;;;;;;2.53;1.20;;;;;;;19.87;55.03;100939.84;4889916;29;20049;-76
2022/08/06 07:52:07;;;;;;;1.30;1.00;;;;;;;19.83;54.82;100938.97;4887082;29;20044;-77
2022/08/06 07:54:40;;;;;;;3.42;1.20;;;;;;;19.79;54.79;100937.25;4884855;29;20484;-76
2022/08/06 07:57:10;;;;;;;1.60;1.23;;;;;;;19.76;54.58;100939.88;4888674;29;20057;-76
2022/08/06 07:59:40;;;;;;;3.42;1.05;;;;;;;19.72;54.89;100937.28;4890740;29;20044;-77
2022/08/06 08:02:11;;;;;;;2.05;1.10;;;;;;;19.66;54.44;100931.16;4891310;29;20049;-76
2022/08/06 08:07:26;;;;;;;2.65;1.30;;;;;;;19.56;55.65;100939.06;4893644;29;20060;-77
2022/08/06 08:09:58;;;;;;;2.45;1.15;;;;;;;19.50;54.99;100929.50;4893063;29;20060;-76
2022/08/06 08:12:27;;;;;;;1.52;1.08;;;;;;;19.45;55.95;100926.91;4896725;29;20052;-75
2022/08/06 08:14:55;;;;;;;2.38;1.55;;;;;;;19.43;56.11;100927.78;4895010;29;20048;-77
2022/08/06 08:17:24;;;;;;;2.58;1.20;;;;;;;19.39;56.19;100926.91;4894557;29;20061;-76
2022/08/06 08:19:53;;;;;;;3.08;1.27;;;;;;;19.38;56.74;100933.06;4893661;29;20049;-76
2022/08/06 08:22:23;;;;;;;3.70;1.40;;;;;;;19.37;56.73;100936.53;4893125;29;20514;-76
2022/08/06 08:24:52;;;;;;;2.92;1.20;;;;;;;19.35;56.14;100935.66;4893566;29;20555;-76
2022/08/06 08:27:22;;;;;;;1.48;1.20;;;;;;;19.33;56.18;100937.41;4892943;29;20052;-77
2022/08/06 08:29:51;;;;;;;2.80;1.10;;;;;;;19.30;56.49;100940.06;4891039;29;20056;-76
2022/08/06 08:32:20;;;;;;;2.28;1.20;;;;;;;19.28;56.03;100941.81;4891776;29;20041;-76
2022/08/06 08:34:49;;;;;;;3.40;1.10;;;;;;;19.28;55.94;100939.19;4893999;29;20495;-76
2022/08/06 08:37:17;;;;;;;2.75;1.27;;;;;;;19.25;55.71;100939.22;4892716;29;20117;-76
2022/08/06 08:39:46;;;;;;;3.78;1.30;;;;;;;19.25;56.06;100949.69;4893019;29;20075;-75
2022/08/06 08:42:19;;;;;;;1.52;1.23;;;;;;;19.23;56.05;100943.59;4889899;29;20147;-76
2022/08/06 08:44:51;;;;;;;1.52;0.95;;;;;;;19.18;56.35;100950.59;4889135;29;20101;-75
2022/08/06 08:47:21;;;;;;;3.67;1.63;;;;;;;19.10;55.86;100944.50;4875454;29;20205;-75
2022/08/06 08:49:53;;;;;;;3.55;1.27;;;;;;;19.08;56.44;100944.53;4891297;29;20088;-75
2022/08/06 08:52:29;;;;;;;2.78;1.23;;;;;;;19.02;56.41;100953.25;4894984;29;20513;-74
2022/08/06 08:55:03;;;;;;;1.77;1.40;;;;;;;18.94;56.32;100952.38;4896009;29;20048;-76
2022/08/06 08:57:34;;;;;;;3.10;1.95;;;;;;;18.89;56.79;100959.41;4889698;29;20057;-75
2022/08/06 09:00:06;;;;;;;2.55;1.60;;;;;;;18.84;56.96;100959.41;4888319;29;20135;-76
2022/08/06 09:02:35;;;;;;;4.43;1.20;;;;;;;18.76;57.40;100961.13;4891104;29;20071;-75
2022/08/06 09:05:04;;;;;;;2.72;1.10;;;;;;;18.72;58.08;100963.75;4897175;29;20131;-76
2022/08/06 09:07:33;;;;;;;2.78;1.17;;;;;;;18.68;57.34;100973.38;4901265;29;20114;-76
2022/08/06 09:10:02;;;;;;;2.60;1.27;;;;;;;18.67;57.80;100976.88;4893945;29;20060;-76
2022/08/06 09:12:31;;;;;;;4.15;1.25;;;;;;;18.59;58.39;100963.75;4894343;29;20055;-75
2022/08/06 09:14:59;;;;;;;4.30;1.25;;;;;;;18.55;58.74;100961.13;4886037;29;20563;-75
2022/08/06 09:17:31;;;;;;;3.15;1.35;;;;;;;18.55;58.43;100969.84;4891731;29;20060;-75
2022/08/06 09:19:59;;;;;;;2.83;1.40;;;;;;;18.55;58.83;100977.72;4884021;29;20140;-75
2022/08/06 09:22:28;;;;;;;1.95;1.17;;;;;;;18.55;59.75;100969.00;4893767;29;20100;-75
2022/08/06 09:24:56;;;;;;;2.35;1.20;;;;;;;18.53;59.73;100966.41;4887869;29;20495;-76
2022/08/06 09:27:33;;;;;;;1.83;1.20;;;;;;;18.51;59.32;100964.63;4888179;29;20055;-76
2022/08/06 09:30:04;;;;;;;3.08;1.35;;;;;;;18.48;58.81;100965.50;4880381;29;20053;-75
2022/08/06 09:32:42;;;;;;;3.20;1.10;;;;;;;18.46;59.22;100963.75;4873760;29;20053;-75
2022/08/06 09:35:21;;;;;;;3.13;1.38;;;;;;;18.42;59.38;100965.50;4873537;29;20048;-75
2022/08/06 09:37:50;;;;;;;2.03;1.35;;;;;;;18.35;59.17;100966.38;4876045;29;20109;-75
2022/08/06 09:40:21;;;;;;;1.52;1.27;;;;;;;18.30;59.79;100975.97;4868678;29;20061;-76
2022/08/06 09:42:52;;;;;;;2.03;1.25;;;;;;;18.27;59.84;100975.97;4870330;29;20049;-75
2022/08/06 09:45:22;;;;;;;1.40;1.10;;;;;;;18.23;59.21;100977.69;4865620;29;20056;-75
2022/08/06 09:48:04;;;;;;;1.80;1.15;;;;;;;18.17;59.25;100968.09;4867342;29;20061;-74
2022/08/06 09:50:44;;;;;;;2.85;1.30;;;;;;;18.09;59.61;100961.97;4873877;29;20061;-76
2022/08/06 09:53:13;;;;;;;3.65;1.38;;;;;;;18.06;60.41;100961.97;4867901;29;20568;-75
2022/08/06 09:55:41;;;;;;;1.35;1.20;;;;;;;18.02;60.10;100962.81;4875660;29;20113;-74
2022/08/06 09:58:10;;;;;;;2.00;1.17;;;;;;;17.96;60.10;100957.59;4871360;29;20049;-76
2022/08/06 10:00:40;;;;;;;2.60;1.38;;;;;;;17.92;60.24;100959.31;4878554;29;20061;-75
2022/08/06 10:03:11;;;;;;;1.75;1.13;;;;;;;17.89;60.41;100958.41;4890340;29;20516;-75
2022/08/06 10:05:40;;;;;;;1.38;1.20;;;;;;;17.86;59.85;100963.66;4886991;29;20059;-75
2022/08/06 10:08:11;;;;;;;2.47;1.23;;;;;;;17.85;60.87;100969.78;4876097;29;20049;-74
2022/08/06 10:10:44;;;;;;;3.47;1.20;;;;;;;17.83;60.44;100966.28;4873480;29;20053;-75
2022/08/06 10:13:18;;;;;;;2.17;1.30;;;;;;;17.81;60.95;100963.66;4879644;29;20112;-75
2022/08/06 10:15:48;;;;;;;2.45;1.50;;;;;;;17.77;61.43;100960.13;4880299;29;20057;-75
2022/08/06 10:18:37;;;;;;;3.50;1.17;;;;;;;17.78;61.79;100967.09;4870675;29;20053;-75
2022/08/06 10:21:07;;;;;;;3.10;1.67;;;;;;;17.75;62.30;100960.97;4864701;29;20041;-75
2022/08/06 10:23:38;;;;;;;2.60;1.42;;;;;;;17.72;61.57;100956.59;4874940;29;20053;-76
2022/08/06 10:26:08;;;;;;;2.65;1.55;;;;;;;17.70;62.49;100967.94;4875621;29;20412;-76
2022/08/06 10:28:38;;;;;;;2.00;1.10;;;;;;;17.66;62.04;100967.06;4882472;28;20503;-75
2022/08/06 10:31:08;;;;;;;2.75;1.35;;;;;;;17.62;60.75;100969.66;4880594;29;20056;-75
2022/08/06 10:33:42;;;;;;;4.00;1.70;;;;;;;17.56;61.67;100973.13;4888728;29;20056;-75
2022/08/06 10:36:14;;;;;;;1.52;1.40;;;;;;;17.53;62.36;100976.59;4889897;29;20140;-75
2022/08/06 10:38:46;;;;;;;2.13;1.27;;;;;;;17.51;61.85;100972.22;4890713;29;20083;-75
2022/08/06 10:41:15;;;;;;;4.00;1.38;;;;;;;17.48;62.41;100970.47;4893194;29;20542;-76
2022/08/06 10:43:44;;;;;;;2.20;1.30;;;;;;;17.46;63.09;100973.97;4895782;29;20056;-75
2022/08/06 10:46:15;;;;;;;2.13;1.40;;;;;;;17.42;63.28;100969.56;4893227;29;20483;-76
2022/08/06 10:48:47;;;;;;;1.85;1.35;;;;;;;17.38;62.96;100981.75;4891596;29;20072;-75
2022/08/06 10:51:17;;;;;;;3.55;1.52;;;;;;;17.33;63.17;100975.63;4892303;29;20164;-76
2022/08/06 10:53:46;;;;;;;5.45;1.70;;;;;;;17.28;63.62;100977.34;4902505;29;20056;-75
2022/08/06 10:56:18;;;;;;;1.95;1.35;;;;;;;17.25;63.85;100972.97;4896703;29;20683;-74
2022/08/06 10:58:48;;;;;;;3.28;1.63;;;;;;;17.21;62.80;100973.81;4898752;29;20053;-75
2022/08/06 11:01:26;;;;;;;3.35;1.70;;;;;;;17.16;63.37;100978.16;4892365;29;20045;-75
2022/08/06 11:04:09;;;;;;;2.40;1.48;;;;;;;17.14;63.05;100974.66;4886486;29;20060;-76
2022/08/06 11:07:06;;;;;;;2.88;1.30;;;;;;;17.11;63.74;100983.34;4886446;29;20045;-75
2022/08/06 11:09:58;;;;;;;2.22;1.42;;;;;;;17.06;63.17;100978.94;4888887;29;20513;-76
2022/08/06 11:12:50;;;;;;;3.03;1.27;;;;;;;17.00;64.35;100978.94;4892033;29;20144;-75
2022/08/06 11:15:19;;;;;;;2.05;1.20;;;;;;;16.98;64.70;100976.28;4892036;29;20055;-75
2022/08/06 11:17:52;;;;;;;2.92;1.40;;;;;;;16.98;64.32;100978.03;4894274;29;20049;-75
2022/08/06 11:20:43;;;;;;;1.23;1.13;;;;;;;16.98;65.11;100975.44;4890637;29;20120;-75
2022/08/06 11:23:32;;;;;;;3.03;1.48;;;;;;;16.93;64.25;100981.50;4894748;29;20056;-75
2022/08/06 11:26:02;;;;;;;1.75;1.33;;;;;;;16.85;64.46;100974.44;4895622;29;20806;-75
2022/08/06 11:28:59;;;;;;;3.40;1.45;;;;;;;16.79;65.18;100974.38;4884504;29;20699;-75
2022/08/06 11:31:46;;;;;;;3.22;1.92;;;;;;;16.75;65.16;100974.34;4891899;29;20090;-75
2022/08/06 11:34:16;;;;;;;1.80;1.40;;;;;;;16.72;65.05;100978.66;4887649;29;20108;-75
2022/08/06 11:36:58;;;;;;;2.15;1.63;;;;;;;16.64;66.29;100972.53;4890355;29;20075;-75
2022/08/06 11:39:29;;;;;;;6.65;1.80;;;;;;;16.62;66.72;100971.63;4890547;29;20104;-76
2022/08/06 11:42:01;;;;;;;3.83;1.58;;;;;;;16.58;66.81;100975.94;4891339;29;20112;-76
2022/08/06 11:44:34;;;;;;;1.75;1.50;;;;;;;16.57;66.04;100974.22;4889386;29;20533;-75
2022/08/06 11:47:16;;;;;;;3.22;1.83;;;;;;;16.52;67.82;100974.16;4891367;29;20724;-76
2022/08/06 11:49:45;;;;;;;3.28;1.80;;;;;;;16.48;68.58;100979.34;4892587;29;20059;-75
2022/08/06 11:52:42;;;;;;;2.65;1.77;;;;;;;16.45;68.66;100974.13;4893036;29;20064;-76